ADDS METAR Data INFO
IDs: Format: Raw Decoded Include TAF

Data at: 1840 UTC 16 Dec 2017

KIJD 161752Z AUTO 27009KT 10SM BKN090 OVC110 01/M08 A2993 RMK AO2 SLP138 I6000 T00061083 10006 21139 58025
KIJD 161652Z AUTO 25008G19KT 10SM OVC110 00/M08 A2996 RMK AO2 SLP147 T00001083
KIJD 161552Z AUTO 26010G16KT 10SM OVC100 M01/M08 A2999 RMK AO2 SLP158 T10111083
KIJD 161452Z AUTO 26003KT 10SM CLR M03/M08 A3001 RMK AO2 SLP163 I3000 T10331078 51027
KIJD 161352Z AUTO 00000KT 8SM CLR M11/M13 A2999 RMK AO2 SLP158 T11111128
KIJD 161252Z AUTO 00000KT 6SM BR CLR M12/M14 A2995 RMK AO2 SLP146 I1000 T11221144 $
KIJD 161152Z AUTO 00000KT 9SM CLR M12/M14 A2993 RMK AO2 SLP137 70002 I1000 I6001 T11171144 11056 21128 51019 $
KIJD 161052Z AUTO 00000KT 10SM CLR M11/M12 A2991 RMK AO2 SLP132 T11061122 $
KIJD 160952Z AUTO 00000KT 9SM CLR M11/M13 A2989 RMK AO2 SLP124 I1001 T11061128 $
KIJD 160852Z AUTO 00000KT 10SM CLR M09/M11 A2987 RMK AO2 SLP118 T10891111 $
KIJD 160752Z AUTO 00000KT 10SM M08/M10 A2986 RMK AO2 SLP115 T10781100 $
KIJD 160652Z AUTO 29003KT 10SM FEW090 M06/M09 A2985 RMK AO2 SLP109 T10611089
KIJD 160552Z AUTO 00000KT 8SM OVC090 M06/M08 A2983 RMK AO2 SLP104 60002 T10611083 11056 21083 57009
KIJD 160452Z AUTO 00000KT 6SM BR CLR M07/M08 A2983 RMK AO2 SLP105 T10671083 410391144
KIJD 160352Z AUTO 00000KT 7SM FEW031 OVC100 M06/M08 A2985 RMK AO2 SNE26 SLP111 P0000 T10611078
KIJD 160320Z AUTO 00000KT 4SM -SN BR BKN041 OVC110 M06/M07 A2986 RMK AO2 P0000 T10561072
KIJD 160302Z AUTO 00000KT 2SM -SN BR OVC031 M06/M07 A2985 RMK AO2 P0000 T10561072
KIJD 160252Z AUTO 00000KT 2SM -SN BR OVC029 M06/M07 A2986 RMK AO2 SLP113 P0001 60002 T10561072 58015
KIJD 160152Z AUTO 00000KT 1 1/4SM -SN BR OVC020 M06/M07 A2987 RMK AO2 SLP118 P0001 T10561072
KIJD 160124Z AUTO 00000KT 1 1/2SM -SN BR OVC025 M06/M08 A2987 RMK AO2 P0001 T10561078
KIJD 160114Z AUTO 01003KT 2SM -SN BR OVC024 M06/M08 A2988 RMK AO2 P0000 T10561078
KIJD 160052Z AUTO 00000KT 1 1/2SM -SN BR OVC022 M06/M08 A2989 RMK AO2 SLP125 P0000 T10561078
KIJD 160031Z AUTO 00000KT 1 3/4SM -SN BR OVC028 M06/M08 A2990 RMK AO2 P0000 T10561078
KIJD 160023Z AUTO 00000KT 2 1/2SM -SN OVC030 M06/M08 A2990 RMK AO2 P0000 T10561083
KIJD 160014Z AUTO 00000KT 1 3/4SM -SN OVC030 M06/M08 A2991 RMK AO2 P0000 T10561083
KIJD 160003Z AUTO 00000KT 2SM -SN OVC028 M05/M09 A2990 RMK AO2 P0000 T10501089
KIJD 152352Z AUTO 22003KT 2 1/2SM -SN OVC030 M05/M09 A2990 RMK AO2 SNB32 SLP129 P0000 60000 T10501094 11039 21050 55008
KIJD 152252Z AUTO 00000KT 10SM OVC070 M04/M10 A2989 RMK AO2 SLP126 T10441100
KIJD 152152Z AUTO 00000KT 10SM OVC080 M04/M11 A2989 RMK AO2 SLP126 T10441106
KIJD 152052Z AUTO 04003KT 10SM OVC090 M04/M11 A2993 RMK AO2 SLP138 T10441111 58030
KIJD 151952Z AUTO 00000KT 10SM OVC100 M04/M12 A2997 RMK AO2 SLP152 T10441117
KIJD 151852Z AUTO 00000KT 10SM SCT120 M04/M12 A3000 RMK AO2 SLP161 T10441117
KIJD 151752Z AUTO 00000KT 10SM OVC100 M04/M12 A3002 RMK AO2 SLP168 T10441117 11044 21144 58036
KIJD 151652Z AUTO 00000KT 10SM OVC095 M06/M12 A3006 RMK AO2 SLP182 T10561122
KIJD 151552Z AUTO 18003KT 10SM BKN110 M07/M13 A3009 RMK AO2 SLP195 T10671128
KIJD 151452Z AUTO 00000KT 10SM SCT120 M08/M13 A3012 RMK AO2 SLP205 T10831128 53012
KIJD 151352Z AUTO 00000KT 10SM CLR M11/M13 A3011 RMK AO2 SLP200 T11111133
KIJD 151252Z AUTO 00000KT 10SM CLR M13/M15 A3009 RMK AO2 SLP194 T11331150
KIJD 151152Z AUTO 00000KT 10SM CLR M14/M16 A3009 RMK AO2 SLP192 70004 T11391161 11106 21144 51006
KIJD 151052Z AUTO 00000KT 10SM CLR M13/M16 A3009 RMK AO2 SLP192 T11331156
KIJD 150952Z AUTO 00000KT 10SM CLR M13/M16 A3007 RMK AO2 SLP188 T11331161
KIJD 150852Z AUTO 18004KT 10SM CLR M11/M16 A3007 RMK AO2 SLP186 T11061156 50013
KIJD 150752Z AUTO 00000KT 10SM CLR M12/M15 A3007 RMK AO2 SLP188 T11221150
KIJD 150652Z AUTO 00000KT 10SM CLR M11/M15 A3006 RMK AO2 SLP182 T11111150